Time;durP1;ratioP1;P1;durP2;ratioP2;P2;SDS_P1;SDS_P2;PMS_P1;PMS_P2;Temp;Humidity;BMP_temperature;BMP_pressure;BME280_temperature;BME280_humidity;BME280_pressure;Samples;Min_cycle;Max_cycle;Signal;HPM_P1;HPM_P2
2022/06/22 00:02:34;;;;;;;9.27;5.95;;;19.40;72.90;;;;;;5053045;28;19958;-67
2022/06/22 00:05:03;;;;;;;9.55;5.25;;;19.40;73.30;;;;;;5052719;28;20108;-66
2022/06/22 00:07:37;;;;;;;9.18;5.13;;;19.30;73.40;;;;;;5060504;28;20044;-68
2022/06/22 00:10:17;;;;;;;10.77;6.53;;;19.30;74.30;;;;;;5070971;28;20388;-68
2022/06/22 00:12:51;;;;;;;7.65;5.85;;;19.20;74.30;;;;;;5059555;28;20035;-67
2022/06/22 00:15:31;;;;;;;9.23;5.97;;;19.20;74.40;;;;;;5051828;28;20725;-68
2022/06/22 00:17:57;;;;;;;13.00;6.50;;;19.20;74.90;;;;;;5065910;28;20048;-67
2022/06/22 00:20:28;;;;;;;9.20;6.50;;;19.20;75.00;;;;;;5057123;28;20027;-67
2022/06/22 00:23:24;;;;;;;8.82;6.35;;;19.10;75.10;;;;;;5070511;28;20062;-68
2022/06/22 00:25:50;;;;;;;7.15;5.90;;;19.10;74.60;;;;;;5071152;28;20036;-68
2022/06/22 00:28:35;;;;;;;7.32;5.65;;;19.10;74.50;;;;;;5054448;28;20196;-68
2022/06/22 00:31:32;;;;;;;7.53;4.80;;;19.00;75.00;;;;;;5059060;28;20024;-67
2022/06/22 00:34:12;;;;;;;7.90;6.07;;;19.00;74.80;;;;;;5067093;28;20167;-67
2022/06/22 00:37:01;;;;;;;9.82;6.43;;;18.90;75.40;;;;;;5052453;28;20032;-65
2022/06/22 00:39:30;;;;;;;5.97;5.22;;;18.90;75.80;;;;;;5052197;28;20090;-65
2022/06/22 00:42:14;;;;;;;6.40;5.55;;;18.90;76.00;;;;;;5057024;28;20055;-65
2022/06/22 00:45:05;;;;;;;6.70;4.32;;;18.80;76.20;;;;;;5061629;28;20037;-65
2022/06/22 00:47:33;;;;;;;9.88;3.78;;;18.80;76.20;;;;;;5067207;28;20499;-65
2022/06/22 00:50:21;;;;;;;5.38;3.50;;;18.70;75.70;;;;;;5060042;28;20033;-66
2022/06/22 00:52:59;;;;;;;7.47;4.88;;;18.70;75.60;;;;;;5052083;28;20037;-65
2022/06/22 00:55:49;;;;;;;5.88;4.25;;;18.70;76.50;;;;;;5051555;28;20121;-65
2022/06/22 00:58:35;;;;;;;6.32;3.90;;;18.60;76.50;;;;;;5055216;28;20029;-66
2022/06/22 01:01:16;;;;;;;6.22;3.35;;;18.60;76.50;;;;;;5054120;28;20037;-66
2022/06/22 01:04:02;;;;;;;5.05;3.47;;;18.60;76.60;;;;;;5070871;28;20078;-66
2022/06/22 01:06:52;;;;;;;3.85;3.17;;;18.50;76.50;;;;;;5069269;28;20057;-67
2022/06/22 01:09:32;;;;;;;4.68;3.13;;;18.50;75.80;;;;;;5051063;28;20053;-67
2022/06/22 01:15:27;;;;;;;4.22;2.95;;;18.40;76.70;;;;;;5033828;28;20030;-67
2022/06/22 01:18:07;;;;;;;5.35;2.67;;;18.40;76.50;;;;;;5040793;28;20037;-67
2022/06/22 01:20:38;;;;;;;4.38;2.80;;;18.30;76.30;;;;;;5050375;28;20071;-67
2022/06/22 01:23:19;;;;;;;6.78;2.88;;;18.30;76.50;;;;;;5052276;28;20064;-67
2022/06/22 01:26:04;;;;;;;4.85;2.60;;;18.30;76.70;;;;;;5051217;28;20104;-67
2022/06/22 01:28:30;;;;;;;6.50;3.22;;;18.30;76.60;;;;;;5072631;28;20040;-66
2022/06/22 01:31:12;;;;;;;4.13;2.60;;;18.30;76.60;;;;;;5073274;28;20357;-66
2022/06/22 01:33:44;;;;;;;4.78;3.33;;;18.30;77.00;;;;;;5066111;28;20036;-67
2022/06/22 01:36:25;;;;;;;5.20;2.92;;;18.20;77.00;;;;;;5071221;28;20040;-67
2022/06/22 01:38:51;;;;;;;7.32;2.92;;;18.20;77.00;;;;;;5067137;28;20036;-67
2022/06/22 01:41:58;;;;;;;3.78;2.47;;;18.20;77.20;;;;;;5075177;28;20023;-67
2022/06/22 01:44:35;;;;;;;7.43;2.78;;;18.20;77.30;;;;;;5035058;28;20193;-67
2022/06/22 01:47:18;;;;;;;5.15;2.60;;;18.10;77.00;;;;;;5074437;28;20131;-67
2022/06/22 01:50:13;;;;;;;4.65;2.55;;;18.10;77.10;;;;;;5072665;28;20165;-67
2022/06/22 01:52:55;;;;;;;7.10;3.08;;;18.10;77.00;;;;;;5038433;28;20094;-67
2022/06/22 01:55:33;;;;;;;5.03;3.22;;;18.00;77.10;;;;;;5074633;28;20036;-67
2022/06/22 01:58:35;;;;;;;4.18;2.80;;;18.00;77.60;;;;;;5061208;28;20052;-67
2022/06/22 02:01:30;;;;;;;4.35;2.72;;;18.00;77.20;;;;;;5071524;28;20021;-66
2022/06/22 02:04:07;;;;;;;7.60;3.17;;;18.00;77.60;;;;;;5044281;28;20130;-67
2022/06/22 02:09:37;;;;;;;5.45;2.60;;;17.90;77.90;;;;;;5068799;28;20521;-67
2022/06/22 02:12:18;;;;;;;4.95;2.75;;;17.90;77.90;;;;;;5062049;28;20102;-66
2022/06/22 02:14:51;;;;;;;5.35;2.60;;;17.90;78.10;;;;;;5055342;28;20065;-66
2022/06/22 02:17:22;;;;;;;5.47;3.00;;;17.80;78.50;;;;;;5054446;28;20108;-66
2022/06/22 02:20:18;;;;;;;4.13;2.35;;;17.80;78.80;;;;;;5055445;28;20056;-66
2022/06/22 02:22:49;;;;;;;3.78;2.78;;;17.80;78.80;;;;;;5057841;28;20048;-67
2022/06/22 02:25:15;;;;;;;4.22;2.97;;;17.80;78.90;;;;;;5054812;28;20113;-66
2022/06/22 02:27:41;;;;;;;5.82;2.83;;;17.80;79.30;;;;;;5061677;28;20025;-67
2022/06/22 02:30:07;;;;;;;3.83;2.63;;;17.80;79.40;;;;;;5054282;28;20043;-66
2022/06/22 02:32:39;;;;;;;4.00;2.47;;;17.70;79.30;;;;;;5053937;28;20476;-66
2022/06/22 02:35:08;;;;;;;3.80;2.35;;;17.70;79.50;;;;;;5073567;28;20036;-68
2022/06/22 02:37:39;;;;;;;5.13;2.65;;;17.70;79.70;;;;;;5071139;28;20418;-66
2022/06/22 02:40:10;;;;;;;3.97;2.30;;;17.70;79.90;;;;;;5065009;28;20155;-67
2022/06/22 02:45:21;;;;;;;4.13;2.60;;;17.70;80.10;;;;;;5053500;28;20090;-66
2022/06/22 02:48:24;;;;;;;5.45;2.20;;;17.70;80.20;;;;;;5062950;28;20496;-66
2022/06/22 02:51:16;;;;;;;4.20;2.03;;;17.70;80.40;;;;;;5011678;28;20037;-66
2022/06/22 02:53:43;;;;;;;4.15;2.58;;;17.60;80.40;;;;;;5055258;28;20492;-66
2022/06/22 02:56:16;;;;;;;3.58;2.40;;;17.60;80.90;;;;;;5054486;28;20048;-68
2022/06/22 02:58:44;;;;;;;3.70;2.85;;;17.60;81.30;;;;;;5072395;28;20460;-67
2022/06/22 03:01:13;;;;;;;4.47;2.53;;;17.60;81.20;;;;;;5069507;28;20025;-68
2022/06/22 03:03:43;;;;;;;5.82;2.90;;;17.60;81.20;;;;;;5061489;28;20033;-67
2022/06/22 03:06:12;;;;;;;4.20;2.38;;;17.50;81.50;;;;;;5053641;28;20025;-68
2022/06/22 03:08:38;;;;;;;4.22;2.58;;;17.50;81.50;;;;;;5061396;28;20500;-67
2022/06/22 03:11:06;;;;;;;4.20;2.67;;;17.50;81.80;;;;;;5073055;28;20016;-66
2022/06/22 03:14:01;;;;;;;4.72;2.67;;;17.40;82.20;;;;;;5071868;28;20035;-67
2022/06/22 03:16:37;;;;;;;3.50;2.20;;;17.50;82.40;;;;;;5071506;28;20032;-68
2022/06/22 03:19:11;;;;;;;3.78;2.20;;;17.50;82.30;;;;;;5064865;28;20032;-67
2022/06/22 03:21:37;;;;;;;4.25;2.75;;;17.50;82.70;;;;;;5072035;28;20476;-67
2022/06/22 03:24:06;;;;;;;3.45;2.60;;;17.50;82.90;;;;;;5071974;28;20476;-66
2022/06/22 03:26:58;;;;;;;4.05;2.75;;;17.50;83.00;;;;;;5063637;28;20383;-67
2022/06/22 03:29:30;;;;;;;5.72;3.50;;;17.50;83.20;;;;;;5064110;28;20040;-66
2022/06/22 03:32:23;;;;;;;4.68;3.17;;;17.50;83.40;;;;;;5073041;28;20048;-67
2022/06/22 03:34:56;;;;;;;3.40;2.60;;;17.60;83.20;;;;;;5071426;28;20430;-65
2022/06/22 03:37:28;;;;;;;5.90;2.95;;;17.50;83.10;;;;;;5060012;28;20468;-65
2022/06/22 03:40:05;;;;;;;4.38;2.33;;;17.60;83.30;;;;;;5071884;28;20073;-65
2022/06/22 03:42:46;;;;;;;4.03;2.67;;;17.60;83.50;;;;;;5069315;28;20032;-65
2022/06/22 03:45:15;;;;;;;6.25;2.80;;;17.60;83.60;;;;;;5051836;28;20063;-65
2022/06/22 03:48:10;;;;;;;4.25;2.70;;;17.60;83.70;;;;;;5066416;28;20369;-65
2022/06/22 03:51:17;;;;;;;5.68;2.55;;;17.70;83.70;;;;;;5052263;28;20036;-65
2022/06/22 03:53:50;;;;;;;4.40;2.15;;;17.70;83.60;;;;;;5061019;28;20038;-65
2022/06/22 03:56:22;;;;;;;7.22;3.05;;;17.70;84.10;;;;;;5069071;28;20071;-65
2022/06/22 03:58:50;;;;;;;4.43;3.05;;;17.70;84.30;;;;;;5070613;28;20499;-65
2022/06/22 04:01:18;;;;;;;3.95;2.05;;;17.80;84.50;;;;;;5067719;28;20032;-66
2022/06/22 04:03:44;;;;;;;3.63;2.50;;;17.80;84.80;;;;;;5068166;28;20098;-65
2022/06/22 04:06:21;;;;;;;6.60;2.80;;;17.80;84.30;;;;;;5070022;28;20457;-64
2022/06/22 04:08:46;;;;;;;9.85;4.03;;;17.90;84.60;;;;;;5058999;28;20056;-64
2022/06/22 04:11:25;;;;;;;4.20;2.85;;;17.90;84.70;;;;;;5062249;28;20028;-64
2022/06/22 04:14:18;;;;;;;6.47;2.80;;;17.90;85.00;;;;;;5060491;28;20028;-65
2022/06/22 04:16:48;;;;;;;4.50;2.88;;;17.90;85.20;;;;;;5051968;28;20063;-64
2022/06/22 04:19:21;;;;;;;5.70;3.05;;;18.00;85.30;;;;;;5059334;28;20032;-65
2022/06/22 04:22:01;;;;;;;6.05;3.05;;;18.00;85.60;;;;;;5065626;28;20035;-65
2022/06/22 04:24:32;;;;;;;4.32;2.90;;;18.00;85.50;;;;;;5068691;28;20041;-65
2022/06/22 04:27:23;;;;;;;4.75;2.72;;;18.00;85.40;;;;;;5059842;28;20112;-65
2022/06/22 04:30:05;;;;;;;3.15;2.42;;;18.00;85.50;;;;;;5060316;28;20036;-65
2022/06/22 04:32:53;;;;;;;3.75;2.35;;;18.10;85.40;;;;;;5073078;28;20041;-65
2022/06/22 04:35:49;;;;;;;4.65;2.95;;;18.10;85.50;;;;;;5063869;28;20419;-65
2022/06/22 04:38:39;;;;;;;6.85;2.65;;;18.10;85.50;;;;;;5069456;28;20024;-64
2022/06/22 04:41:21;;;;;;;6.78;3.25;;;18.10;85.50;;;;;;5069007;28;20111;-65
2022/06/22 04:43:47;;;;;;;6.80;2.45;;;18.10;85.50;;;;;;5060122;28;20043;-65
2022/06/22 04:46:22;;;;;;;6.28;2.70;;;18.20;85.50;;;;;;5066868;28;20082;-65
2022/06/22 04:48:49;;;;;;;5.13;2.65;;;18.20;85.30;;;;;;5063528;28;20025;-65
2022/06/22 04:51:27;;;;;;;7.80;2.40;;;18.20;85.70;;;;;;5057452;28;20070;-65
2022/06/22 04:53:58;;;;;;;5.07;2.70;;;18.20;85.80;;;;;;5053977;28;20067;-65
2022/06/22 04:56:38;;;;;;;4.55;2.95;;;18.30;85.60;;;;;;5067140;28;20028;-65
2022/06/22 04:59:07;;;;;;;4.70;2.95;;;18.30;85.50;;;;;;5059110;28;20037;-64
2022/06/22 05:01:46;;;;;;;5.50;2.65;;;18.30;85.80;;;;;;5070275;28;20063;-64
2022/06/22 05:04:17;;;;;;;5.38;2.83;;;18.40;85.60;;;;;;5078265;28;20045;-65
2022/06/22 05:07:04;;;;;;;5.32;2.83;;;18.40;85.90;;;;;;5065670;28;20088;-64
2022/06/22 05:09:40;;;;;;;5.38;2.63;;;18.40;86.20;;;;;;5080895;28;20064;-65
2022/06/22 05:12:13;;;;;;;6.88;3.40;;;18.50;86.20;;;;;;5074973;28;20032;-64
2022/06/22 05:14:39;;;;;;;5.95;2.67;;;18.50;86.20;;;;;;5082468;28;20032;-65
2022/06/22 05:17:30;;;;;;;4.38;2.60;;;18.50;86.20;;;;;;5087290;28;20025;-64
2022/06/22 05:20:14;;;;;;;4.93;3.05;;;18.60;85.90;;;;;;5076999;28;20029;-64
2022/06/22 05:22:40;;;;;;;8.32;3.63;;;18.60;86.10;;;;;;5072857;28;20056;-65
2022/06/22 05:25:09;;;;;;;7.93;3.22;;;18.70;86.00;;;;;;5058845;28;20040;-64
2022/06/22 05:27:51;;;;;;;4.30;2.90;;;18.70;86.00;;;;;;5069099;28;20049;-64
2022/06/22 05:30:17;;;;;;;5.80;3.00;;;18.80;86.00;;;;;;5054065;28;20060;-64
2022/06/22 05:32:49;;;;;;;4.82;3.10;;;18.80;85.80;;;;;;5068847;28;20064;-64
2022/06/22 05:35:26;;;;;;;8.48;4.07;;;18.90;86.10;;;;;;5053487;28;20017;-65
2022/06/22 05:37:54;;;;;;;5.78;3.50;;;19.00;85.40;;;;;;5056058;28;20525;-64
2022/06/22 05:40:25;;;;;;;5.28;3.13;;;19.00;85.60;;;;;;5055600;28;20038;-65
2022/06/22 05:42:51;;;;;;;7.57;3.35;;;19.10;85.60;;;;;;5065059;28;20045;-64
2022/06/22 05:45:21;;;;;;;4.88;2.95;;;19.10;85.60;;;;;;5072555;28;20119;-65
2022/06/22 05:47:47;;;;;;;6.88;3.40;;;19.20;85.40;;;;;;5069835;28;20487;-65
2022/06/22 05:50:36;;;;;;;5.78;3.65;;;19.30;85.30;;;;;;5060859;28;20167;-66
2022/06/22 05:53:10;;;;;;;6.43;3.70;;;19.40;84.90;;;;;;5054623;28;20104;-65
2022/06/22 05:56:02;;;;;;;8.30;3.70;;;19.50;84.50;;;;;;5051307;28;20021;-65
2022/06/22 05:58:46;;;;;;;6.32;3.50;;;19.50;84.40;;;;;;5051426;28;20037;-65
2022/06/22 06:01:27;;;;;;;5.55;3.17;;;19.60;84.20;;;;;;5051049;28;20032;-65
2022/06/22 06:04:04;;;;;;;6.22;3.20;;;19.70;83.80;;;;;;5058721;28;20128;-65
2022/06/22 06:06:37;;;;;;;5.47;3.03;;;19.80;83.70;;;;;;5054887;28;20025;-65
2022/06/22 06:09:06;;;;;;;7.13;2.60;;;19.90;82.70;;;;;;5056282;28;20391;-66
2022/06/22 06:11:38;;;;;;;5.75;3.03;;;20.00;82.50;;;;;;5051526;28;20029;-65
2022/06/22 06:14:09;;;;;;;5.43;3.10;;;20.10;81.70;;;;;;5060219;28;20107;-65
2022/06/22 06:16:45;;;;;;;4.90;2.50;;;20.20;81.00;;;;;;5062417;28;20128;-65
2022/06/22 06:19:16;;;;;;;6.57;3.20;;;20.30;80.60;;;;;;5064810;28;20471;-65
2022/06/22 06:21:42;;;;;;;5.65;2.70;;;20.40;80.30;;;;;;5055881;28;20114;-65
2022/06/22 06:24:19;;;;;;;5.00;3.28;;;20.50;80.40;;;;;;5069647;28;20037;-65
2022/06/22 06:30:02;;;;;;;5.95;2.90;;;20.60;80.20;;;;;;5071223;28;20566;-65
2022/06/22 06:33:05;;;;;;;6.22;3.00;;;20.70;80.20;;;;;;5061511;28;20049;-66
2022/06/22 06:36:00;;;;;;;6.85;3.20;;;20.80;79.80;;;;;;5065462;28;20550;-65
2022/06/22 06:38:32;;;;;;;;;;;20.90;79.00;;;;;;5054779;28;20040;-65
2022/06/22 06:41:01;;;;;;;3.38;2.60;;;21.00;79.70;;;;;;5070304;28;20337;-65
2022/06/22 06:43:48;;;;;;;5.82;3.17;;;21.00;77.70;;;;;;5071046;28;20086;-65
2022/06/22 06:46:18;;;;;;;4.43;2.40;;;21.10;78.60;;;;;;5070382;28;20024;-65
2022/06/22 06:48:49;;;;;;;7.25;2.35;;;21.20;77.00;;;;;;5071175;28;20029;-65
2022/06/22 06:51:16;;;;;;;5.47;2.30;;;21.30;77.30;;;;;;5070342;28;20020;-65
2022/06/22 06:53:53;;;;;;;5.57;2.05;;;21.40;76.10;;;;;;5060934;28;20082;-65
2022/06/22 06:56:47;;;;;;;4.65;2.40;;;21.50;74.10;;;;;;5058836;28;20111;-65
2022/06/22 06:59:17;;;;;;;4.53;2.03;;;21.50;73.90;;;;;;5060935;28;20048;-64
2022/06/22 07:01:46;;;;;;;4.78;2.05;;;21.60;73.40;;;;;;5064320;28;20120;-64
2022/06/22 07:04:18;;;;;;;3.63;2.00;;;21.70;71.20;;;;;;5066574;28;20061;-64
2022/06/22 07:06:45;;;;;;;5.53;2.30;;;21.80;69.90;;;;;;5080657;28;20055;-64
2022/06/22 07:09:21;;;;;;;3.95;2.20;;;21.80;69.50;;;;;;5055489;28;20045;-64
2022/06/22 07:11:49;;;;;;;3.10;1.85;;;21.90;68.30;;;;;;5080138;28;20086;-64
2022/06/22 07:14:27;;;;;;;6.43;3.00;;;21.90;68.80;;;;;;5060381;28;20033;-63
2022/06/22 07:16:58;;;;;;;4.95;2.20;;;22.00;69.60;;;;;;5051752;28;20507;-64
2022/06/22 07:20:13;;;;;;;3.28;2.00;;;22.10;68.90;;;;;;5067456;28;20036;-65
2022/06/22 07:22:59;;;;;;;4.57;2.37;;;22.20;68.70;;;;;;5068504;28;20029;-64
2022/06/22 07:25:32;;;;;;;5.28;2.10;;;22.30;68.30;;;;;;5061859;28;20117;-64
2022/06/22 07:28:01;;;;;;;3.83;2.20;;;22.40;68.30;;;;;;5060206;28;20115;-64
2022/06/22 07:30:43;;;;;;;5.40;1.98;;;22.50;68.40;;;;;;5060258;28;20031;-65
2022/06/22 07:33:27;;;;;;;5.82;2.28;;;22.60;67.90;;;;;;5066193;28;20391;-65
2022/06/22 07:35:56;;;;;;;4.15;2.08;;;22.60;67.50;;;;;;5063979;28;20102;-64
2022/06/22 07:38:39;;;;;;;4.43;2.10;;;22.70;66.50;;;;;;5060388;28;20116;-65
2022/06/22 07:41:20;;;;;;;5.90;2.10;;;22.80;66.20;;;;;;5064547;28;20083;-64
2022/06/22 07:43:48;;;;;;;7.10;2.00;;;22.80;65.30;;;;;;5067666;28;20033;-64
2022/06/22 07:46:23;;;;;;;3.60;1.98;;;22.90;65.20;;;;;;5071247;28;20036;-65
2022/06/22 07:48:51;;;;;;;;;;;23.00;65.40;;;;;;5059750;28;20357;-64
2022/06/22 07:51:23;;;;;;;6.15;1.92;;;23.10;65.90;;;;;;5067511;28;19982;-65
2022/06/22 07:53:56;;;;;;;3.67;1.90;;;23.10;63.90;;;;;;5066520;28;20525;-65
2022/06/22 07:56:33;;;;;;;4.68;2.55;;;23.20;63.80;;;;;;5069990;28;20361;-65
2022/06/22 07:59:06;;;;;;;4.78;2.10;;;23.20;63.20;;;;;;5062333;28;20029;-65
2022/06/22 08:01:38;;;;;;;6.78;2.10;;;23.30;63.30;;;;;;5055927;28;20373;-65
2022/06/22 08:04:25;;;;;;;5.63;2.10;;;23.40;63.40;;;;;;5060080;28;20572;-64
2022/06/22 08:07:02;;;;;;;3.38;1.90;;;23.40;62.70;;;;;;5057920;28;20459;-64
2022/06/22 08:09:37;;;;;;;6.03;2.13;;;23.60;63.20;;;;;;5065315;28;20076;-66
2022/06/22 08:12:13;;;;;;;3.72;1.88;;;23.60;63.30;;;;;;5080124;28;20427;-65
2022/06/22 08:14:45;;;;;;;5.53;1.98;;;23.70;63.30;;;;;;5065555;28;20056;-65
2022/06/22 08:17:46;;;;;;;3.90;1.80;;;23.80;62.20;;;;;;5066295;28;20386;-66
2022/06/22 08:20:20;;;;;;;3.38;1.77;;;23.80;61.40;;;;;;5059493;28;20120;-66
2022/06/22 08:22:47;;;;;;;;;;;23.90;60.90;;;;;;5069132;28;20802;-66
2022/06/22 08:25:16;;;;;;;3.25;1.60;;;23.90;62.40;;;;;;5069428;28;19982;-66
2022/06/22 08:27:43;;;;;;;5.60;1.70;;;23.90;60.30;;;;;;5068670;28;20037;-66
2022/06/22 08:30:11;;;;;;;4.68;1.77;;;24.00;59.70;;;;;;5066619;28;20032;-65
2022/06/22 08:32:48;;;;;;;3.00;1.70;;;24.00;58.90;;;;;;5065533;28;20028;-65
2022/06/22 08:35:29;;;;;;;4.25;1.85;;;24.00;58.60;;;;;;5068755;28;20021;-65
2022/06/22 08:38:03;;;;;;;3.55;1.90;;;24.10;59.80;;;;;;5068987;28;20547;-65
2022/06/22 08:40:43;;;;;;;6.15;1.77;;;24.20;60.20;;;;;;5057840;28;20025;-64
2022/06/22 08:43:38;;;;;;;2.90;1.50;;;24.20;60.00;;;;;;5053664;28;20483;-66
2022/06/22 08:46:29;;;;;;;3.70;1.80;;;24.30;58.80;;;;;;5060494;28;20024;-64
2022/06/22 08:49:27;;;;;;;4.43;1.95;;;24.30;58.80;;;;;;5056541;28;20484;-64
2022/06/22 08:52:05;;;;;;;5.05;2.00;;;24.40;59.40;;;;;;5058731;28;20051;-64
2022/06/22 08:54:47;;;;;;;3.55;1.80;;;24.50;59.40;;;;;;5055106;28;20490;-64
2022/06/22 08:57:38;;;;;;;4.40;1.88;;;24.50;58.20;;;;;;5054373;28;20029;-64
2022/06/22 09:00:14;;;;;;;4.25;2.30;;;24.50;58.00;;;;;;5063686;28;20032;-64
2022/06/22 09:03:27;;;;;;;3.65;2.03;;;24.60;59.10;;;;;;5066597;28;20028;-69
2022/06/22 09:06:18;;;;;;;6.38;2.63;;;24.70;57.70;;;;;;5053473;28;20117;-64
2022/06/22 09:09:02;;;;;;;6.30;2.58;;;24.80;57.40;;;;;;5061683;28;20098;-65
2022/06/22 09:11:50;;;;;;;4.45;2.03;;;24.80;57.90;;;;;;5063472;28;20039;-65
2022/06/22 09:14:37;;;;;;;3.00;1.85;;;24.90;56.60;;;;;;5063679;28;20044;-65
2022/06/22 09:17:21;;;;;;;3.63;1.63;;;25.00;56.00;;;;;;5061817;28;20478;-65
2022/06/22 09:20:28;;;;;;;3.15;1.83;;;25.00;56.60;;;;;;5065866;28;20186;-65
2022/06/22 09:22:56;;;;;;;2.60;1.50;;;25.10;56.00;;;;;;5065258;28;20037;-65
2022/06/22 09:25:48;;;;;;;6.13;1.70;;;25.10;55.30;;;;;;5054479;28;20037;-65
2022/06/22 09:28:31;;;;;;;5.15;1.77;;;25.20;54.60;;;;;;5067049;28;20537;-65
2022/06/22 09:31:14;;;;;;;4.63;1.77;;;25.30;54.50;;;;;;5050693;28;20029;-65
2022/06/22 09:33:58;;;;;;;3.30;1.52;;;25.30;54.10;;;;;;5057529;28;20399;-65
2022/06/22 09:36:36;;;;;;;3.45;1.80;;;25.30;53.90;;;;;;5051316;28;20527;-65
2022/06/22 09:39:40;;;;;;;1.95;1.52;;;25.40;53.00;;;;;;5059359;28;20047;-65
2022/06/22 09:42:51;;;;;;;3.13;1.58;;;25.40;53.60;;;;;;5068486;28;20024;-65
2022/06/22 09:45:28;;;;;;;3.25;1.80;;;25.50;53.00;;;;;;5048065;28;20049;-65
2022/06/22 09:48:30;;;;;;;4.18;1.98;;;25.50;52.70;;;;;;5070418;28;20024;-65
2022/06/22 09:51:19;;;;;;;4.32;2.08;;;25.60;53.50;;;;;;5059748;28;20028;-65
2022/06/22 09:54:01;;;;;;;2.58;1.52;;;25.60;53.50;;;;;;5054344;28;20063;-65
2022/06/22 09:56:46;;;;;;;2.55;1.77;;;25.70;53.10;;;;;;5053912;28;20056;-65
2022/06/22 09:59:53;;;;;;;4.72;1.58;;;25.80;53.80;;;;;;5055597;28;20130;-65
2022/06/22 10:02:41;;;;;;;4.55;1.90;;;25.80;53.80;;;;;;5062654;28;20035;-64
2022/06/22 10:05:46;;;;;;;2.72;1.73;;;25.90;52.90;;;;;;5067108;28;20052;-65
2022/06/22 10:08:31;;;;;;;3.75;1.50;;;25.80;51.80;;;;;;5068120;28;20401;-65
2022/06/22 10:11:18;;;;;;;3.53;1.40;;;25.90;51.20;;;;;;5076109;28;20028;-64
2022/06/22 10:13:55;;;;;;;3.03;1.80;;;25.80;50.40;;;;;;5066362;28;20645;-64
2022/06/22 10:16:37;;;;;;;3.72;1.75;;;25.80;50.40;;;;;;5054325;28;20495;-65
2022/06/22 10:19:24;;;;;;;4.40;1.90;;;25.90;50.10;;;;;;5053708;28;20455;-65
2022/06/22 10:21:56;;;;;;;2.58;1.35;;;25.90;50.20;;;;;;5054097;28;20028;-64
2022/06/22 10:24:42;;;;;;;2.97;1.70;;;26.00;49.60;;;;;;5063281;28;20388;-65
2022/06/22 10:27:21;;;;;;;4.28;1.80;;;26.00;48.60;;;;;;5072576;28;20119;-65
2022/06/22 10:30:15;;;;;;;4.18;1.75;;;26.00;48.10;;;;;;5073527;28;20081;-65
2022/06/22 10:33:15;;;;;;;3.67;1.50;;;26.00;48.50;;;;;;5072258;28;20078;-65
2022/06/22 10:35:50;;;;;;;3.83;1.40;;;26.10;48.40;;;;;;5073691;28;20056;-65
2022/06/22 10:38:27;;;;;;;2.17;1.73;;;26.20;48.50;;;;;;5056192;28;20029;-65
2022/06/22 10:47:53;;;;;;;3.47;1.60;;;26.30;46.40;;;;;;5060773;28;20044;-65
2022/06/22 10:50:39;;;;;;;12.25;1.90;;;26.20;46.90;;;;;;5071355;28;20054;-65
2022/06/22 10:53:31;;;;;;;4.03;1.70;;;26.20;47.40;;;;;;5070990;28;20086;-65
2022/06/22 10:56:15;;;;;;;2.47;1.60;;;26.30;47.40;;;;;;5065687;28;20067;-64
2022/06/22 10:59:14;;;;;;;3.85;2.25;;;26.30;48.30;;;;;;5058628;28;20112;-65
2022/06/22 11:01:43;;;;;;;2.92;1.38;;;26.40;48.00;;;;;;5054994;28;20086;-65
2022/06/22 11:04:30;;;;;;;3.35;1.55;;;26.40;47.60;;;;;;5073270;28;20040;-64
2022/06/22 11:07:22;;;;;;;2.45;1.52;;;26.50;48.30;;;;;;5065402;28;20044;-65
2022/06/22 11:10:09;;;;;;;4.75;1.55;;;26.60;47.30;;;;;;5073065;28;20131;-64
2022/06/22 11:13:23;;;;;;;3.65;1.67;;;26.60;47.30;;;;;;5070132;28;20079;-65
2022/06/22 11:16:01;;;;;;;3.83;1.38;;;26.60;47.50;;;;;;5053126;28;20031;-65
2022/06/22 11:18:42;;;;;;;2.05;1.30;;;26.60;46.90;;;;;;5068303;28;20116;-65
2022/06/22 11:21:32;;;;;;;3.47;1.75;;;26.60;46.90;;;;;;5055051;28;20033;-65
2022/06/22 11:24:16;;;;;;;2.50;1.60;;;26.70;47.30;;;;;;5071845;28;20044;-65
2022/06/22 11:32:58;;;;;;;2.83;1.60;;;26.80;46.60;;;;;;5051449;28;20032;-65
2022/06/22 11:35:55;;;;;;;4.68;1.77;;;26.70;46.50;;;;;;5052819;28;20043;-65
2022/06/22 11:38:46;;;;;;;2.92;1.45;;;26.80;46.70;;;;;;5058544;28;20036;-65
2022/06/22 11:41:36;;;;;;;1.80;1.30;;;26.70;46.50;;;;;;5054998;28;20032;-65
2022/06/22 11:44:20;;;;;;;2.60;1.77;;;26.80;47.00;;;;;;5067306;28;20029;-65
2022/06/22 11:46:50;;;;;;;3.70;1.35;;;26.90;47.10;;;;;;5047457;28;20039;-65
2022/06/22 11:50:05;;;;;;;3.33;1.40;;;27.00;45.90;;;;;;5048069;28;20036;-64
2022/06/22 11:53:00;;;;;;;2.45;1.60;;;27.00;46.50;;;;;;5018122;28;20090;-65
2022/06/22 11:55:32;;;;;;;2.65;1.60;;;27.00;45.40;;;;;;5047340;28;20116;-65
2022/06/22 11:58:10;;;;;;;2.80;1.50;;;27.10;45.40;;;;;;5048423;28;20021;-65
2022/06/22 12:01:04;;;;;;;3.80;1.55;;;27.10;44.60;;;;;;5047300;28;20028;-65
2022/06/22 12:03:46;;;;;;;4.50;1.38;;;27.20;44.20;;;;;;5048285;28;20119;-65
2022/06/22 12:06:14;;;;;;;3.92;1.55;;;27.20;43.40;;;;;;5047418;28;20090;-65
2022/06/22 12:08:57;;;;;;;3.08;1.58;;;27.20;42.70;;;;;;5048403;28;20050;-65
2022/06/22 12:12:00;;;;;;;2.00;1.23;;;27.20;43.20;;;;;;5045470;28;20434;-66
2022/06/22 12:17:54;;;;;;;3.17;1.40;;;27.30;42.90;;;;;;5048025;28;20108;-65
2022/06/22 12:20:19;;;;;;;4.50;1.88;;;27.40;42.90;;;;;;5047524;28;20039;-66
2022/06/22 12:23:03;;;;;;;4.22;1.90;;;27.50;43.20;;;;;;5048213;28;20036;-66
2022/06/22 12:25:45;;;;;;;3.70;1.65;;;27.50;43.40;;;;;;5047421;28;20607;-66
2022/06/22 12:28:41;;;;;;;2.67;1.50;;;27.60;42.90;;;;;;5049283;28;20035;-65
2022/06/22 12:31:16;;;;;;;2.90;1.45;;;27.60;42.90;;;;;;5046939;28;20361;-66
2022/06/22 12:33:48;;;;;;;2.72;1.35;;;27.60;42.50;;;;;;5047268;28;20029;-66
2022/06/22 12:36:35;;;;;;;2.90;1.48;;;27.70;43.00;;;;;;5046724;28;20032;-65
2022/06/22 12:39:15;;;;;;;6.45;1.85;;;27.80;43.50;;;;;;5047285;28;20036;-65
2022/06/22 12:42:00;;;;;;;3.05;1.20;;;28.00;44.00;;;;;;5048729;28;20049;-64
2022/06/22 12:44:44;;;;;;;6.28;1.90;;;28.10;43.50;;;;;;5047495;28;20041;-65
2022/06/22 12:47:29;;;;;;;;;;;28.10;43.10;;;;;;5045624;28;20037;-64
2022/06/22 12:50:29;;;;;;;4.60;1.67;;;28.20;44.00;;;;;;5046535;28;20383;-64
2022/06/22 12:53:02;;;;;;;8.07;1.80;;;28.20;43.00;;;;;;5047017;28;20036;-65
2022/06/22 12:55:34;;;;;;;4.70;2.38;;;28.30;43.70;;;;;;5046609;28;20510;-65
2022/06/22 12:58:05;;;;;;;2.45;1.33;;;28.40;43.90;;;;;;5047209;28;20025;-65
2022/06/22 13:00:31;;;;;;;2.67;1.58;;;28.50;42.30;;;;;;5044482;28;20032;-65
2022/06/22 13:02:58;;;;;;;3.10;1.33;;;28.60;42.10;;;;;;5046972;28;20033;-64
2022/06/22 13:05:35;;;;;;;3.78;1.50;;;28.70;42.20;;;;;;5057445;28;20109;-65
2022/06/22 13:08:06;;;;;;;3.35;1.25;;;28.80;41.90;;;;;;5058697;28;20060;-65
2022/06/22 13:10:41;;;;;;;3.20;1.45;;;28.90;41.40;;;;;;5045757;28;20306;-64
2022/06/22 13:13:16;;;;;;;3.70;1.50;;;29.00;41.40;;;;;;5046831;28;20760;-65
2022/06/22 13:15:52;;;;;;;1.88;1.15;;;29.10;41.00;;;;;;5046441;28;20032;-65
2022/06/22 13:18:29;;;;;;;2.30;1.45;;;29.10;39.50;;;;;;5047221;28;20850;-65
2022/06/22 13:21:16;;;;;;;7.03;1.40;;;29.20;39.90;;;;;;5046092;28;20025;-65
2022/06/22 13:23:58;;;;;;;2.63;1.40;;;29.30;39.90;;;;;;5051047;28;20037;-65
2022/06/22 13:26:57;;;;;;;2.92;1.63;;;29.40;39.90;;;;;;5049158;28;20586;-65
2022/06/22 13:29:46;;;;;;;2.30;1.38;;;29.40;40.30;;;;;;5051245;28;20529;-65
2022/06/22 13:32:13;;;;;;;2.60;1.30;;;29.60;40.50;;;;;;5050484;28;20112;-65
2022/06/22 13:34:48;;;;;;;3.28;1.55;;;29.70;40.50;;;;;;5050426;28;20116;-65
2022/06/22 13:37:29;;;;;;;5.00;1.58;;;29.80;40.20;;;;;;5049325;28;20067;-65
2022/06/22 13:40:12;;;;;;;4.10;1.63;;;29.90;40.60;;;;;;5050895;28;20097;-65
2022/06/22 13:42:57;;;;;;;3.20;1.75;;;30.00;40.20;;;;;;5050001;28;20029;-65
2022/06/22 13:45:57;;;;;;;2.17;1.25;;;30.10;40.20;;;;;;5050740;28;20041;-65
2022/06/22 13:48:40;;;;;;;3.90;1.38;;;30.10;39.50;;;;;;5054331;28;20105;-65
2022/06/22 13:51:32;;;;;;;3.88;1.55;;;30.00;39.30;;;;;;5050646;28;20036;-65
2022/06/22 13:54:29;;;;;;;3.08;1.50;;;29.90;39.40;;;;;;5050434;28;20020;-65
2022/06/22 13:57:34;;;;;;;2.75;1.40;;;29.90;39.30;;;;;;5049778;28;20032;-66
2022/06/22 13:59:59;;;;;;;;;;;29.90;39.50;;;;;;5052354;28;20450;-65
2022/06/22 14:03:03;;;;;;;2.78;1.42;;;30.00;40.40;;;;;;5051961;28;19922;-65
2022/06/22 14:05:40;;;;;;;2.40;1.30;;;30.10;39.20;;;;;;5019453;28;20053;-65
2022/06/22 14:08:25;;;;;;;4.05;1.50;;;30.10;38.70;;;;;;5049849;28;20461;-64
2022/06/22 14:11:05;;;;;;;3.05;1.50;;;30.00;38.80;;;;;;5048730;28;20025;-65
2022/06/22 14:14:09;;;;;;;3.47;1.73;;;30.10;39.60;;;;;;5050981;28;20135;-65
2022/06/22 14:17:01;;;;;;;2.17;1.27;;;30.20;39.30;;;;;;5026893;28;20600;-64
2022/06/22 14:20:05;;;;;;;3.08;1.38;;;30.30;39.60;;;;;;5049788;28;20071;-64
2022/06/22 14:22:41;;;;;;;3.20;1.80;;;30.40;39.90;;;;;;5048504;28;20195;-65
2022/06/22 14:25:14;;;;;;;2.35;1.33;;;30.50;39.70;;;;;;5049766;28;20661;-65